createdAt,value
2022-10-01T00:05:00.326Z,5.60
2022-10-01T00:10:02.050Z,5.72
2022-10-01T00:15:13.559Z,5.20
2022-10-01T00:20:18.155Z,5.82
2022-10-01T00:25:25.405Z,5.60
2022-10-01T00:30:31.914Z,5.38
2022-10-01T00:35:37.974Z,5.65
2022-10-01T00:40:42.329Z,5.30
2022-10-01T00:45:49.331Z,5.60
2022-10-01T00:50:53.809Z,5.70
2022-10-01T00:56:02.912Z,5.90
2022-10-01T01:01:04.692Z,6.28
2022-10-01T01:06:18.349Z,6.55
2022-10-01T01:11:58.542Z,6.93
2022-10-01T01:17:11.406Z,7.22
2022-10-01T01:22:16.510Z,7.32
2022-10-01T01:27:28.725Z,7.38
2022-10-01T01:32:42.834Z,7.15
2022-10-01T01:37:51.084Z,7.60
2022-10-01T01:42:57.547Z,7.20
2022-10-01T01:48:02.209Z,6.95
2022-10-01T01:53:09.330Z,7.18
2022-10-01T01:58:11.243Z,8.15
2022-10-01T02:03:15.209Z,8.50
2022-10-01T02:08:26.501Z,8.77
2022-10-01T02:13:48.236Z,8.50
2022-10-01T02:19:10.885Z,8.52
2022-10-01T02:24:24.710Z,8.85
2022-10-01T02:29:33.303Z,8.40
2022-10-01T02:34:36.847Z,10.02
2022-10-01T02:39:41.725Z,9.43
2022-10-01T02:44:45.341Z,10.27
2022-10-01T02:49:49.962Z,10.77
2022-10-01T02:54:57.184Z,10.05
2022-10-01T03:00:09.467Z,10.57
2022-10-01T03:05:14.710Z,11.43
2022-10-01T03:10:19.872Z,11.57
2022-10-01T03:15:26.282Z,12.87
2022-10-01T03:20:27.961Z,12.43
2022-10-01T03:25:29.624Z,11.68
2022-10-01T03:30:33.920Z,13.45
2022-10-01T03:35:37.961Z,13.25
2022-10-01T03:40:42.123Z,13.57
2022-10-01T03:45:44.482Z,12.90
2022-10-01T03:50:58.837Z,13.18
2022-10-01T03:56:05.030Z,12.93
2022-10-01T04:01:06.775Z,13.30
2022-10-01T04:06:08.503Z,12.93
2022-10-01T04:11:10.465Z,12.87
2022-10-01T04:16:15.798Z,12.30
2022-10-01T04:21:20.550Z,12.07
2022-10-01T04:26:25.968Z,11.50
2022-10-01T04:31:35.040Z,13.83
2022-10-01T04:36:39.801Z,14.43
2022-10-01T04:41:43.772Z,13.00
2022-10-01T04:46:50.191Z,12.48
2022-10-01T04:51:52.005Z,13.00
2022-10-01T04:56:58.328Z,13.68
2022-10-01T05:02:00.105Z,12.80
2022-10-01T05:07:01.924Z,13.97
2022-10-01T05:12:08.098Z,13.03
2022-10-01T05:17:09.921Z,12.68
2022-10-01T05:22:13.855Z,13.50
2022-10-01T05:27:20.086Z,14.47
2022-10-01T05:32:22.962Z,13.90
2022-10-01T05:37:24.711Z,13.95
2022-10-01T05:42:34.743Z,15.53
2022-10-01T05:47:42.459Z,14.75
2022-10-01T05:53:08.996Z,13.00
2022-10-01T05:58:16.821Z,13.40
2022-10-01T06:03:18.670Z,13.87
2022-10-01T06:08:28.722Z,12.65
2022-10-01T06:13:30.842Z,11.27
2022-10-01T06:18:34.607Z,11.63
2022-10-01T06:23:36.491Z,9.53
2022-10-01T06:28:41.316Z,9.40
2022-10-01T06:33:52.391Z,11.05
2022-10-01T06:39:04.592Z,9.25
2022-10-01T06:44:06.383Z,11.40
2022-10-01T06:49:08.193Z,8.63
2022-10-01T06:54:10.702Z,9.33
2022-10-01T06:59:12.364Z,9.15
2022-10-01T07:04:18.862Z,9.53
2022-10-01T07:09:26.717Z,8.20
2022-10-01T07:14:32.715Z,8.25
2022-10-01T07:19:34.426Z,8.15
2022-10-01T07:24:46.126Z,9.73
2022-10-01T07:29:59.097Z,7.68
2022-10-01T07:35:05.895Z,8.02
2022-10-01T07:40:10.452Z,7.35
2022-10-01T07:45:16.973Z,7.22
2022-10-01T07:50:23.298Z,6.78
2022-10-01T07:55:28.598Z,6.90
2022-10-01T08:00:34.387Z,5.82
2022-10-01T08:05:46.465Z,5.82
2022-10-01T08:10:50.972Z,5.90
2022-10-01T08:15:55.588Z,5.10
2022-10-01T08:21:02.185Z,5.10
2022-10-01T08:26:08.695Z,5.30
2022-10-01T08:31:10.831Z,4.70
2022-10-01T08:36:13.163Z,4.07
2022-10-01T08:41:34.992Z,3.85
2022-10-01T08:46:39.504Z,3.72
2022-10-01T08:51:42.455Z,3.47
2022-10-01T08:56:46.583Z,3.20
2022-10-01T09:01:49.253Z,3.05
2022-10-01T09:07:01.940Z,3.30
2022-10-01T09:12:31.759Z,2.60
2022-10-01T09:17:53.057Z,2.80
2022-10-01T09:23:20.859Z,2.50
2022-10-01T09:28:27.858Z,2.25
2022-10-01T09:33:38.227Z,2.85
2022-10-01T09:38:46.030Z,2.30
2022-10-01T09:43:50.253Z,2.40
2022-10-01T09:49:00.371Z,2.25
2022-10-01T09:54:05.104Z,2.20
2022-10-01T09:59:10.981Z,2.85
2022-10-01T10:04:15.556Z,2.03
2022-10-01T10:09:26.347Z,2.13
2022-10-01T10:14:39.127Z,2.65
2022-10-01T10:19:49.089Z,2.00
2022-10-01T10:24:55.210Z,2.28
2022-10-01T10:30:05.878Z,3.10
2022-10-01T10:35:17.545Z,2.70
2022-10-01T10:40:29.063Z,2.17
2022-10-01T10:45:37.476Z,1.90
2022-10-01T10:50:46.019Z,1.40
2022-10-01T10:56:01.164Z,2.00
2022-10-01T11:01:12.168Z,2.25
2022-10-01T11:06:19.474Z,1.60
2022-10-01T11:11:46.307Z,2.30
2022-10-01T11:16:53.961Z,1.80
2022-10-01T11:21:58.722Z,2.22
2022-10-01T11:27:11.173Z,1.70
2022-10-01T11:32:50.390Z,2.17
2022-10-01T11:38:32.230Z,2.13
2022-10-01T11:43:39.340Z,1.80
2022-10-01T11:48:41.825Z,1.50
2022-10-01T11:53:50.039Z,1.30
2022-10-01T11:59:01.223Z,0.80
2022-10-01T12:04:17.707Z,0.80
2022-10-01T12:09:37.524Z,0.70
2022-10-01T12:14:49.451Z,0.80
2022-10-01T12:19:58.276Z,0.80
2022-10-01T12:25:05.156Z,0.95
2022-10-01T12:30:20.727Z,0.70
2022-10-01T12:35:47.394Z,0.65
2022-10-01T12:40:53.278Z,0.75
2022-10-01T12:46:19.704Z,0.85
2022-10-01T12:51:33.160Z,1.35
2022-10-01T12:56:47.987Z,1.05
2022-10-01T13:01:56.116Z,1.30
2022-10-01T13:07:16.197Z,1.35
2022-10-01T13:12:43.562Z,1.25
2022-10-01T13:17:51.619Z,1.45
2022-10-01T13:23:09.895Z,1.13
2022-10-01T13:28:14.926Z,1.20
2022-10-01T13:33:23.282Z,1.02
2022-10-01T13:38:30.305Z,0.93
2022-10-01T13:43:37.519Z,1.13
2022-10-01T13:48:46.757Z,1.10
2022-10-01T13:54:00.569Z,1.05
2022-10-01T13:59:22.017Z,0.82
2022-10-01T14:04:38.025Z,1.20
2022-10-01T14:09:48.767Z,1.20
2022-10-01T14:15:15.895Z,1.45
2022-10-01T14:20:24.942Z,1.40
2022-10-01T14:25:54.370Z,1.50
2022-10-01T14:31:00.255Z,2.03
2022-10-01T14:36:28.571Z,1.65
2022-10-01T14:41:35.134Z,2.17
2022-10-01T14:46:38.410Z,1.85
2022-10-01T14:51:57.176Z,1.60
2022-10-01T14:56:59.261Z,1.90
2022-10-01T15:02:15.239Z,2.20
2022-10-01T15:07:18.021Z,2.35
2022-10-01T15:12:21.900Z,2.28
2022-10-01T15:17:27.099Z,1.88
2022-10-01T15:22:33.144Z,2.28
2022-10-01T15:27:37.759Z,2.25
2022-10-01T15:32:40.540Z,2.10
2022-10-01T15:37:50.276Z,2.35
2022-10-01T15:43:24.767Z,1.92
2022-10-01T15:48:49.623Z,2.00
2022-10-01T15:54:20.421Z,2.35
2022-10-01T15:59:24.416Z,1.80
2022-10-01T16:04:27.111Z,2.97
2022-10-01T16:09:29.748Z,2.03
2022-10-01T16:14:44.097Z,2.53
2022-10-01T16:19:48.189Z,2.95
2022-10-01T16:25:25.488Z,1.90
2022-10-01T16:30:32.647Z,2.28
2022-10-01T16:35:40.712Z,2.88
2022-10-01T16:40:44.151Z,2.60
2022-10-01T16:45:48.072Z,2.08
2022-10-01T16:50:54.204Z,2.95
2022-10-01T16:55:58.943Z,2.15
2022-10-01T17:01:07.603Z,3.00
2022-10-01T17:06:11.594Z,2.13
2022-10-01T17:11:16.466Z,1.88
2022-10-01T17:16:24.429Z,2.50
2022-10-01T17:21:33.787Z,2.13
2022-10-01T17:26:45.351Z,2.05
2022-10-01T17:31:53.371Z,2.42
2022-10-01T17:37:00.317Z,2.95
2022-10-01T17:42:02.078Z,2.40
2022-10-01T17:47:09.190Z,2.45
2022-10-01T17:52:11.168Z,1.95
2022-10-01T17:57:13.946Z,3.00
2022-10-01T18:02:39.943Z,2.33
2022-10-01T18:07:42.427Z,2.20
2022-10-01T18:12:44.542Z,1.70
2022-10-01T18:17:52.236Z,2.17
2022-10-01T18:22:56.939Z,1.85
2022-10-01T18:27:58.660Z,2.10
2022-10-01T18:33:03.776Z,3.17
2022-10-01T18:38:24.397Z,2.10
2022-10-01T18:43:31.103Z,2.85
2022-10-01T18:49:05.732Z,2.67
2022-10-01T18:54:26.489Z,2.33
2022-10-01T19:00:21.828Z,2.30
2022-10-01T19:05:45.968Z,2.53
2022-10-01T19:11:30.560Z,2.25
2022-10-01T19:16:35.184Z,2.00
2022-10-01T19:22:02.242Z,2.30
2022-10-01T19:27:13.617Z,2.55
2022-10-01T19:32:27.116Z,2.55
2022-10-01T19:37:34.028Z,2.70
2022-10-01T19:42:42.792Z,2.42
2022-10-01T19:47:50.822Z,2.67
2022-10-01T19:52:54.526Z,2.50
2022-10-01T19:57:58.691Z,2.60
2022-10-01T20:03:11.637Z,3.15
2022-10-01T20:08:24.943Z,2.80
2022-10-01T20:13:50.958Z,2.78
2022-10-01T20:19:08.870Z,2.80
2022-10-01T20:24:22.014Z,2.40
2022-10-01T20:29:26.247Z,2.75
2022-10-01T20:34:59.334Z,3.40
2022-10-01T20:40:25.242Z,3.53
2022-10-01T20:45:35.443Z,4.43
2022-10-01T20:50:46.777Z,3.95
2022-10-01T20:55:54.599Z,3.38
2022-10-01T21:01:07.012Z,4.07
2022-10-01T21:06:15.599Z,3.40
2022-10-01T21:11:21.351Z,3.92
2022-10-01T21:16:37.932Z,4.30
2022-10-01T21:22:17.124Z,3.95
2022-10-01T21:27:47.643Z,3.88
2022-10-01T21:32:53.301Z,4.38
2022-10-01T21:37:57.529Z,3.35
2022-10-01T21:43:14.876Z,3.20
2022-10-01T21:48:37.254Z,3.60
2022-10-01T21:53:43.753Z,3.92
2022-10-01T21:58:51.629Z,2.78
2022-10-01T22:04:25.805Z,3.50
2022-10-01T22:09:40.363Z,2.70
2022-10-01T22:14:47.717Z,3.50
2022-10-01T22:19:54.097Z,3.05
2022-10-01T22:25:03.012Z,3.90
2022-10-01T22:30:19.889Z,2.40
2022-10-01T22:35:38.948Z,2.67
2022-10-01T22:41:10.940Z,2.83
2022-10-01T22:46:31.427Z,2.90
2022-10-01T22:51:54.674Z,3.63
2022-10-01T22:57:03.248Z,3.05
2022-10-01T23:02:25.762Z,2.65
2022-10-01T23:07:41.374Z,2.83
2022-10-01T23:12:58.205Z,2.80
2022-10-01T23:18:15.083Z,2.90
2022-10-01T23:23:23.683Z,2.67
2022-10-01T23:29:27.329Z,2.95
2022-10-01T23:34:59.420Z,2.53
2022-10-01T23:40:07.761Z,2.33
2022-10-01T23:45:11.918Z,2.65
2022-10-01T23:50:31.880Z,2.53
2022-10-01T23:56:03.593Z,2.35
